Time;durP1;ratioP1;P1;durP2;ratioP2;P2;SDS_P1;SDS_P2;PMS_P1;PMS_P2;Temp;Humidity;BMP_temperature;BMP_pressure;BME280_temperature;BME280_humidity;BME280_pressure;Samples;Min_cycle;Max_cycle;Signal;HPM_P1;HPM_P2
2020/12/25 00:06:04;;;;;;;5.60;2.47;;;;;;;2.68;100.00;100334.72;18657699;28;20084;-71
2020/12/25 00:15:05;;;;;;;6.38;2.25;;;;;;;2.55;100.00;100345.31;18658103;28;20124;-71
2020/12/25 00:24:08;;;;;;;5.53;2.42;;;;;;;2.54;100.00;100348.78;18660977;28;20049;-71
2020/12/25 00:33:10;;;;;;;4.97;2.00;;;;;;;2.48;100.00;100341.19;18662014;28;20107;-71
2020/12/25 00:42:11;;;;;;;4.28;1.90;;;;;;;2.46;100.00;100344.69;18663737;28;20049;-71
2020/12/25 00:51:19;;;;;;;3.85;1.60;;;;;;;2.44;100.00;100357.63;18658060;28;20073;-70
2020/12/25 01:00:20;;;;;;;4.82;1.98;;;;;;;2.45;100.00;100351.59;18655496;28;20590;-71
2020/12/25 01:09:24;;;;;;;3.00;1.50;;;;;;;2.59;100.00;100370.19;18665416;28;20045;-69
2020/12/25 01:18:25;;;;;;;5.32;1.30;;;;;;;2.55;100.00;100378.06;18673245;28;20070;-70
2020/12/25 01:27:26;;;;;;;3.75;1.40;;;;;;;2.51;100.00;100389.34;18673638;28;20133;-70
2020/12/25 01:36:27;;;;;;;3.30;1.40;;;;;;;2.56;100.00;100411.63;18674413;28;20093;-70
2020/12/25 01:45:28;;;;;;;4.38;1.80;;;;;;;2.62;100.00;100425.28;18666652;28;20065;-71
2020/12/25 01:54:29;;;;;;;6.15;2.30;;;;;;;2.66;100.00;100424.34;18666437;28;20057;-71
2020/12/25 02:03:30;;;;;;;5.25;2.30;;;;;;;2.67;100.00;100434.66;18668811;28;20054;-71
2020/12/25 02:12:32;;;;;;;7.07;2.50;;;;;;;2.76;100.00;100449.09;18662986;28;20095;-71
2020/12/25 02:21:33;;;;;;;7.82;4.13;;;;;;;2.86;100.00;100455.75;18663606;28;20129;-71
2020/12/25 02:30:33;;;;;;;7.03;3.40;;;;;;;2.89;100.00;100445.38;18662577;28;20054;-72
2020/12/25 02:39:34;;;;;;;7.68;3.33;;;;;;;2.80;100.00;100458.47;18662655;28;20049;-71
2020/12/25 02:48:36;;;;;;;10.07;3.30;;;;;;;2.82;100.00;100469.63;18662106;28;20041;-71
2020/12/25 02:57:36;;;;;;;10.10;3.75;;;;;;;2.82;100.00;100477.41;18660878;28;20450;-71
2020/12/25 03:06:37;;;;;;;7.82;3.92;;;;;;;2.79;100.00;100480.06;18658561;28;20034;-71
2020/12/25 03:15:38;;;;;;;12.80;5.47;;;;;;;2.85;100.00;100482.47;18655577;28;20100;-71
2020/12/25 03:24:39;;;;;;;15.57;6.22;;;;;;;2.83;100.00;100492.88;18659412;28;20050;-71
2020/12/25 03:33:40;;;;;;;14.05;6.20;;;;;;;2.95;100.00;100491.75;18658164;28;20053;-71
2020/12/25 03:42:43;;;;;;;11.25;5.50;;;;;;;2.86;100.00;100497.13;18658127;28;20050;-72
2020/12/25 03:51:44;;;;;;;18.98;6.63;;;;;;;2.87;100.00;100504.00;18658723;28;20046;-71
2020/12/25 04:00:45;;;;;;;14.05;5.60;;;;;;;2.89;100.00;100512.56;18657479;28;20128;-72
2020/12/25 04:09:46;;;;;;;15.05;6.22;;;;;;;2.87;100.00;100512.59;18656656;28;20046;-71
2020/12/25 04:18:47;;;;;;;13.02;6.35;;;;;;;2.85;100.00;100518.66;18657867;28;20050;-72
2020/12/25 04:27:48;;;;;;;17.85;7.18;;;;;;;2.82;100.00;100522.19;18656439;28;20042;-71
2020/12/25 04:36:49;;;;;;;18.15;7.45;;;;;;;2.87;100.00;100543.63;18653500;28;20092;-71
2020/12/25 04:45:50;;;;;;;14.82;7.15;;;;;;;2.85;100.00;100554.84;18668809;28;20046;-71
2020/12/25 04:54:51;;;;;;;13.93;5.93;;;;;;;2.71;100.00;100562.03;18670433;28;20042;-71
2020/12/25 05:03:52;;;;;;;14.30;6.03;;;;;;;2.70;100.00;100568.94;18668905;28;20580;-71
2020/12/25 05:12:53;;;;;;;16.48;6.47;;;;;;;2.72;100.00;100585.28;18668686;28;20042;-70
2020/12/25 05:21:59;;;;;;;18.05;6.97;;;;;;;2.75;100.00;100584.34;18668329;28;20081;-70
2020/12/25 05:31:02;;;;;;;16.83;6.50;;;;;;;2.72;100.00;100597.34;18666563;28;20437;-70
2020/12/25 05:40:06;;;;;;;17.07;7.47;;;;;;;2.77;100.00;100603.28;18667794;28;20571;-71
2020/12/25 05:49:12;;;;;;;15.32;6.93;;;;;;;2.72;100.00;100613.72;18665733;28;20658;-69
2020/12/25 05:58:14;;;;;;;11.18;5.88;;;;;;;2.56;100.00;100614.88;18665929;28;20064;-70
2020/12/25 06:07:21;;;;;;;15.93;6.03;;;;;;;2.55;100.00;100621.75;18663733;28;20061;-71
2020/12/25 06:16:22;;;;;;;13.30;5.75;;;;;;;2.49;100.00;100637.38;18665206;28;20077;-71
2020/12/25 06:25:24;;;;;;;12.93;5.93;;;;;;;2.59;100.00;100648.41;18664904;28;20062;-71
2020/12/25 06:34:45;;;;;;;10.25;5.65;;;;;;;2.58;100.00;100663.06;18662592;28;20434;-71
2020/12/25 06:43:48;;;;;;;9.63;5.88;;;;;;;2.56;100.00;100680.31;18658645;28;20493;-70
2020/12/25 06:52:54;;;;;;;14.57;6.10;;;;;;;2.57;100.00;100691.50;18659219;28;20490;-70
2020/12/25 07:01:55;;;;;;;12.50;6.40;;;;;;;2.59;100.00;100700.91;18656164;28;20069;-70
2020/12/25 07:11:07;;;;;;;12.65;6.53;;;;;;;2.67;100.00;100715.44;18656470;28;20053;-70
2020/12/25 07:20:09;;;;;;;11.70;6.25;;;;;;;2.85;100.00;100725.47;18657238;28;20041;-71
2020/12/25 07:29:16;;;;;;;12.13;6.18;;;;;;;2.85;100.00;100734.06;18662105;28;20447;-70
2020/12/25 07:38:17;;;;;;;12.75;6.38;;;;;;;2.93;100.00;100744.28;18660953;28;20069;-70
2020/12/25 07:47:18;;;;;;;10.50;5.63;;;;;;;2.92;100.00;100745.16;18661380;28;20513;-70
2020/12/25 07:56:21;;;;;;;11.02;5.68;;;;;;;3.04;100.00;100763.06;18660294;28;20053;-70
2020/12/25 08:05:22;;;;;;;;;;;;;;;2.97;100.00;100774.38;18659803;28;20046;-71
2020/12/25 08:14:24;;;;;;;10.52;5.68;;;;;;;3.13;100.00;100786.16;18666435;28;19921;-71
2020/12/25 08:23:25;;;;;;;10.70;5.65;;;;;;;3.27;100.00;100797.09;18681169;28;20065;-71
2020/12/25 08:32:30;;;;;;;12.90;5.95;;;;;;;3.27;100.00;100804.88;18673513;28;20057;-71
2020/12/25 08:41:31;;;;;;;11.32;5.95;;;;;;;3.45;98.65;100801.94;18675573;28;20437;-71
2020/12/25 08:50:32;;;;;;;10.13;4.70;;;;;;;3.48;98.16;100813.97;18673328;28;20046;-70
2020/12/25 08:59:33;;;;;;;10.52;5.07;;;;;;;3.55;97.59;100819.91;18666103;28;20398;-70
2020/12/25 09:08:34;;;;;;;9.43;4.75;;;;;;;3.58;93.75;100846.56;18666268;28;20073;-70
2020/12/25 09:17:35;;;;;;;8.15;3.85;;;;;;;3.60;92.22;100864.66;18666199;28;20041;-71
2020/12/25 09:26:41;;;;;;;8.45;4.15;;;;;;;3.64;91.05;100881.84;18674616;28;20045;-71
2020/12/25 09:35:42;;;;;;;7.95;3.90;;;;;;;3.50;90.66;100889.84;18665562;28;20052;-71
2020/12/25 09:44:46;;;;;;;14.25;4.38;;;;;;;3.60;87.00;100898.31;18668661;28;20046;-72
2020/12/25 09:53:46;;;;;;;6.90;3.40;;;;;;;3.57;87.37;100899.19;18668857;28;20057;-71
2020/12/25 10:02:48;;;;;;;11.80;4.45;;;;;;;3.43;86.96;100909.78;18664305;28;20104;-71
2020/12/25 10:11:53;;;;;;;8.98;4.13;;;;;;;3.51;88.31;100908.78;18670039;28;20052;-70
2020/12/25 10:20:54;;;;;;;9.02;3.95;;;;;;;3.48;86.20;100916.63;18670003;28;20042;-70
2020/12/25 10:29:55;;;;;;;7.43;3.75;;;;;;;3.42;84.60;100908.06;18668445;28;20042;-71
2020/12/25 10:38:56;;;;;;;8.80;4.13;;;;;;;3.35;84.36;100901.28;18665594;28;20038;-71
2020/12/25 10:47:57;;;;;;;9.43;3.90;;;;;;;3.78;86.13;100913.50;18666285;28;20046;-71
2020/12/25 10:56:58;;;;;;;7.30;3.33;;;;;;;3.88;82.73;100912.44;18666806;28;20746;-72
2020/12/25 11:05:59;;;;;;;7.50;3.28;;;;;;;3.75;79.15;100929.09;18663920;28;20038;-71
2020/12/25 11:14:59;;;;;;;6.93;3.22;;;;;;;3.71;79.61;100924.81;18662777;28;20038;-72
2020/12/25 11:24:02;;;;;;;7.15;3.00;;;;;;;3.64;82.48;100929.28;18662662;28;20653;-72
2020/12/25 11:33:03;;;;;;;6.00;3.03;;;;;;;3.70;79.07;100928.31;18658336;28;20053;-72
2020/12/25 11:42:04;;;;;;;9.63;2.80;;;;;;;3.83;73.67;100933.25;18662812;28;20042;-71
2020/12/25 11:51:06;;;;;;;6.38;3.10;;;;;;;4.27;75.93;100921.16;18660494;28;20130;-72
2020/12/25 12:00:07;;;;;;;5.20;2.55;;;;;;;3.87;74.37;100926.25;18659592;28;20042;-72
2020/12/25 12:09:08;;;;;;;6.70;2.55;;;;;;;3.86;74.59;100922.81;18660966;28;20136;-71
2020/12/25 12:18:09;;;;;;;7.82;3.00;;;;;;;3.95;74.28;100916.63;18660471;28;20061;-71
2020/12/25 12:27:10;;;;;;;8.43;3.38;;;;;;;4.05;75.33;100914.72;18663264;28;20488;-71
2020/12/25 12:36:11;;;;;;;6.93;2.88;;;;;;;3.48;75.56;100927.81;18660885;28;20042;-70
2020/12/25 12:45:12;;;;;;;4.47;1.92;;;;;;;3.67;75.35;100925.75;18661040;28;20391;-71
2020/12/25 12:54:13;;;;;;;4.38;2.35;;;;;;;4.05;72.51;100919.91;18659934;28;20038;-72
2020/12/25 13:03:14;;;;;;;5.25;1.98;;;;;;;4.16;73.38;100926.59;18663282;28;20046;-72
2020/12/25 13:12:15;;;;;;;4.63;1.92;;;;;;;4.04;73.52;100929.41;18667857;28;20418;-72
2020/12/25 13:21:23;;;;;;;6.82;1.73;;;;;;;3.84;74.48;100924.59;18672612;28;20038;-70
2020/12/25 13:30:24;;;;;;;4.55;1.63;;;;;;;3.97;72.63;100932.97;18670259;28;20073;-71
2020/12/25 13:39:25;;;;;;;5.57;2.50;;;;;;;4.07;72.84;100931.91;18670507;28;20058;-72
2020/12/25 13:48:27;;;;;;;5.15;2.10;;;;;;;3.91;72.52;100933.13;18669103;28;20485;-71
2020/12/25 13:57:28;;;;;;;4.82;1.73;;;;;;;3.77;70.38;100953.19;18670719;28;20512;-71
2020/12/25 14:06:31;;;;;;;8.75;2.10;;;;;;;3.72;71.24;100953.28;18662895;28;20042;-72
2020/12/25 14:15:32;;;;;;;6.70;2.60;;;;;;;3.70;72.13;100957.66;18662492;28;20418;-70
2020/12/25 14:24:33;;;;;;;7.22;2.33;;;;;;;3.63;71.04;100975.88;18669664;28;20046;-71
2020/12/25 14:33:34;;;;;;;5.60;2.20;;;;;;;3.68;72.22;100999.97;18669020;28;20057;-71
2020/12/25 14:42:36;;;;;;;6.60;2.10;;;;;;;3.46;69.76;101002.03;18667898;28;20049;-72
2020/12/25 14:51:37;;;;;;;7.63;3.10;;;;;;;3.38;69.64;100999.56;18659849;28;20482;-71
2020/12/25 15:00:39;;;;;;;9.18;2.38;;;;;;;3.27;68.82;101014.41;18663116;28;20041;-71
2020/12/25 15:09:40;;;;;;;10.93;3.38;;;;;;;3.07;70.14;101024.16;18664088;28;20501;-71
2020/12/25 15:18:41;;;;;;;43.58;17.98;;;;;;;2.90;72.64;101020.94;18663638;28;20069;-71
2020/12/25 15:27:43;;;;;;;107.53;40.65;;;;;;;2.57;75.12;101023.09;18662263;28;20050;-71
2020/12/25 15:36:44;;;;;;;5.25;2.17;;;;;;;2.14;83.60;101029.56;18666155;28;20045;-72
2020/12/25 15:45:45;;;;;;;23.48;11.23;;;;;;;1.88;82.92;101026.41;18661104;28;20065;-69
2020/12/25 15:54:45;;;;;;;12.43;6.05;;;;;;;1.79;81.30;101029.03;18661567;28;20046;-71
2020/12/25 16:03:46;;;;;;;6.15;2.83;;;;;;;1.63;84.72;101044.63;18660113;28;20056;-72
2020/12/25 16:12:48;;;;;;;7.32;3.10;;;;;;;1.53;86.27;101034.38;18663055;28;20066;-70
2020/12/25 16:21:49;;;;;;;16.35;9.75;;;;;;;1.52;83.70;101041.31;18658237;28;20081;-70
2020/12/25 16:30:50;;;;;;;9.60;3.50;;;;;;;1.29;87.58;101053.47;18656342;28;20504;-71
2020/12/25 16:39:51;;;;;;;12.50;5.38;;;;;;;1.23;88.32;101069.84;18667367;28;20054;-71
2020/12/25 16:48:54;;;;;;;16.65;7.40;;;;;;;1.19;87.30;101083.59;18673164;28;20133;-71
2020/12/25 16:57:55;;;;;;;10.20;3.80;;;;;;;1.03;89.02;101088.84;18666904;28;20050;-70
2020/12/25 17:06:56;;;;;;;8.73;2.80;;;;;;;0.81;91.73;101090.66;18673463;28;20041;-71
2020/12/25 17:15:57;;;;;;;9.45;4.13;;;;;;;0.53;94.86;101100.16;18670457;28;21216;-71
2020/12/25 17:24:58;;;;;;;24.95;8.20;;;;;;;0.63;93.08;101104.44;18668186;28;20053;-71
2020/12/25 17:33:59;;;;;;;15.90;4.63;;;;;;;0.64;92.77;101121.63;18670390;28;20073;-71
2020/12/25 17:43:00;;;;;;;48.55;17.02;;;;;;;0.39;93.69;101130.25;18672317;28;20042;-71
2020/12/25 17:52:01;;;;;;;10.18;5.47;;;;;;;0.19;97.00;101126.81;18671067;28;20057;-71
2020/12/25 18:01:02;;;;;;;16.88;9.80;;;;;;;0.07;97.86;101134.53;18668324;28;20510;-71
2020/12/25 18:10:03;;;;;;;27.88;13.75;;;;;;;-0.11;99.47;101141.41;18666886;28;20050;-68
2020/12/25 18:19:04;;;;;;;53.80;38.95;;;;;;;-0.31;100.00;101152.53;18664117;28;20564;-71
2020/12/25 18:28:05;;;;;;;10.15;4.00;;;;;;;-0.52;100.00;101153.31;18662883;28;20046;-71
2020/12/25 18:37:06;;;;;;;9.07;4.20;;;;;;;-0.44;100.00;101161.91;18663526;28;20046;-71
2020/12/25 18:46:11;;;;;;;9.02;4.22;;;;;;;-0.53;99.76;101156.75;18663796;28;20136;-71
2020/12/25 18:55:12;;;;;;;11.68;5.03;;;;;;;-0.21;98.78;101160.25;18661930;28;20049;-71
2020/12/25 19:04:14;;;;;;;8.85;3.85;;;;;;;-0.13;96.55;101158.53;18665201;28;20081;-71
2020/12/25 19:13:15;;;;;;;8.50;3.75;;;;;;;-0.20;98.34;101163.66;18664249;28;20049;-71
2020/12/25 19:22:31;;;;;;;11.93;3.40;;;;;;;-0.47;99.96;101167.06;18662910;28;20512;-69
2020/12/25 19:31:32;;;;;;;16.70;8.52;;;;;;;-0.65;100.00;101188.41;18665067;28;20080;-69
2020/12/25 19:40:33;;;;;;;41.03;21.33;;;;;;;-0.65;100.00;101197.81;18665782;28;20053;-69
2020/12/25 19:49:34;;;;;;;36.33;20.02;;;;;;;-0.53;100.00;101203.03;18667013;28;20084;-70
2020/12/25 19:58:37;;;;;;;;;;;;;;;-0.24;100.00;101211.69;18667035;28;20057;-70
2020/12/25 20:07:38;;;;;;;33.58;18.27;;;;;;;-0.13;100.00;101230.59;18664311;28;20011;-70
2020/12/25 20:16:39;;;;;;;32.00;20.42;;;;;;;-0.20;100.00;101235.69;18664532;28;20112;-70
2020/12/25 20:25:40;;;;;;;41.78;18.13;;;;;;;-0.20;100.00;101238.25;18661988;28;20857;-71
2020/12/25 20:34:41;;;;;;;55.33;22.88;;;;;;;-0.07;100.00;101230.59;18666589;28;20058;-70
2020/12/25 20:43:42;;;;;;;104.30;43.47;;;;;;;-0.02;100.00;101228.91;18698956;28;20119;-70
2020/12/25 20:52:44;;;;;;;38.03;18.63;;;;;;;0.01;100.00;101222.88;18664855;28;20498;-70
2020/12/25 21:01:50;;;;;;;39.75;19.48;;;;;;;-0.01;100.00;101235.78;18660571;28;20069;-70
2020/12/25 21:10:51;;;;;;;25.83;12.77;;;;;;;0.02;100.00;101246.91;18644855;28;20042;-70
2020/12/25 21:19:52;;;;;;;17.80;7.50;;;;;;;0.05;100.00;101247.78;18661134;28;20505;-70
2020/12/25 21:28:53;;;;;;;12.82;6.63;;;;;;;0.21;100.00;101257.22;18657769;28;20413;-70
2020/12/25 21:37:54;;;;;;;15.18;6.85;;;;;;;0.19;100.00;101270.97;18656012;28;20046;-70
2020/12/25 21:46:57;;;;;;;22.27;10.38;;;;;;;0.33;100.00;101280.44;18652167;28;20061;-71
2020/12/25 21:55:58;;;;;;;23.43;9.70;;;;;;;0.47;100.00;101274.44;18660627;28;20045;-69
2020/12/25 22:04:59;;;;;;;20.67;11.45;;;;;;;0.47;100.00;101257.25;18654543;28;20045;-70
2020/12/25 22:14:00;;;;;;;28.05;15.20;;;;;;;0.39;100.00;101251.25;18659459;28;20042;-69
2020/12/25 22:23:01;;;;;;;25.30;13.32;;;;;;;0.26;100.00;101250.38;18657982;28;20042;-70
2020/12/25 22:32:03;;;;;;;24.08;10.40;;;;;;;0.13;100.00;101263.22;18655170;28;20048;-70
2020/12/25 22:41:04;;;;;;;23.20;12.80;;;;;;;0.06;100.00;101262.34;18671003;28;20088;-70
2020/12/25 22:50:05;;;;;;;29.90;12.18;;;;;;;-0.08;100.00;101275.19;18671036;28;20054;-70
2020/12/25 22:59:06;;;;;;;21.45;10.55;;;;;;;-0.10;100.00;101268.31;18670129;28;20069;-70
2020/12/25 23:08:09;;;;;;;25.90;13.40;;;;;;;-0.10;100.00;101265.72;18654734;28;20049;-71
2020/12/25 23:17:10;;;;;;;;;;;;;;;-0.11;100.00;101264.91;18668166;28;20053;-71
2020/12/25 23:26:18;;;;;;;20.75;11.00;;;;;;;-0.15;100.00;101259.72;18667186;28;20408;-70
2020/12/25 23:35:19;;;;;;;22.50;11.32;;;;;;;-0.28;100.00;101251.13;18666388;28;20056;-70
2020/12/25 23:44:20;;;;;;;32.20;15.57;;;;;;;-0.34;100.00;101255.38;18665816;28;20918;-70
2020/12/25 23:53:21;;;;;;;30.33;14.45;;;;;;;-0.47;100.00;101249.34;18666117;28;20054;-71
